Time;durP1;ratioP1;P1;durP2;ratioP2;P2;SDS_P1;SDS_P2;PMS_P1;PMS_P2;Temp;Humidity;BMP_temperature;BMP_pressure;BME280_temperature;BME280_humidity;BME280_pressure;Samples;Min_cycle;Max_cycle;Signal;HPM_P1;HPM_P2
2021/12/03 00:02:09;;;;;;;5.82;4.13;;;;;;;6.83;72.32;93994.75;5043586;28;20272;-67
2021/12/03 00:04:36;;;;;;;3.03;2.83;;;;;;;6.97;72.13;94000.97;5043019;28;20207;-67
2021/12/03 00:07:03;;;;;;;3.85;3.47;;;;;;;7.15;71.94;94002.84;5042144;28;20227;-67
2021/12/03 00:09:34;;;;;;;6.93;4.07;;;;;;;7.22;71.24;94003.44;5043024;28;20203;-68
2021/12/03 00:12:03;;;;;;;4.72;4.32;;;;;;;7.12;71.68;94005.50;5044476;28;21420;-68
2021/12/03 00:14:30;;;;;;;10.98;4.88;;;;;;;6.96;71.84;94029.66;5042248;28;20272;-67
2021/12/03 00:16:57;;;;;;;6.35;4.30;;;;;;;6.80;72.44;94011.69;5041090;28;20222;-67
2021/12/03 00:19:23;;;;;;;8.27;4.70;;;;;;;6.87;71.57;94030.00;5042119;28;20225;-66
2021/12/03 00:21:50;;;;;;;6.40;4.22;;;;;;;6.59;72.91;94000.66;5042082;28;20262;-67
2021/12/03 00:24:17;;;;;;;3.88;3.47;;;;;;;6.55;72.91;94013.44;5042489;28;20242;-67
2021/12/03 00:26:44;;;;;;;5.28;3.83;;;;;;;6.49;73.85;94019.53;5041311;28;21261;-67
2021/12/03 00:29:12;;;;;;;6.32;4.55;;;;;;;6.54;73.74;94012.63;5042268;28;20203;-67
2021/12/03 00:31:39;;;;;;;8.20;5.13;;;;;;;6.44;74.48;94011.28;5042457;28;20340;-67
2021/12/03 00:34:05;;;;;;;5.30;3.25;;;;;;;6.63;74.16;94002.22;5040778;28;20269;-67
2021/12/03 00:36:32;;;;;;;5.32;3.67;;;;;;;6.86;73.49;93998.03;5041776;28;20480;-68
2021/12/03 00:38:59;;;;;;;5.85;3.45;;;;;;;7.09;72.48;93992.97;5041905;28;20264;-68
2021/12/03 00:41:30;;;;;;;4.18;3.50;;;;;;;7.36;72.08;93996.16;5042428;28;20219;-67
2021/12/03 00:43:56;;;;;;;3.70;3.40;;;;;;;7.49;69.88;94025.94;5041774;28;20199;-69
2021/12/03 00:46:24;;;;;;;7.32;5.45;;;;;;;7.18;71.42;94033.84;5040889;28;20268;-68
2021/12/03 00:48:53;;;;;;;7.50;4.22;;;;;;;6.94;71.45;94029.69;5041137;28;20253;-68
2021/12/03 00:51:22;;;;;;;4.35;3.95;;;;;;;7.00;71.74;94032.00;5040395;28;21042;-69
2021/12/03 00:53:49;;;;;;;4.35;3.88;;;;;;;6.86;72.92;94041.78;5039875;28;20243;-67
2021/12/03 00:56:17;;;;;;;6.38;4.25;;;;;;;6.76;73.32;94027.84;5040504;28;20727;-67
2021/12/03 00:58:44;;;;;;;9.45;3.95;;;;;;;6.71;73.88;94017.88;5040316;28;20679;-68
2021/12/03 01:01:11;;;;;;;5.57;4.90;;;;;;;6.73;73.88;94023.72;5040713;28;20266;-68
2021/12/03 01:03:41;;;;;;;5.72;4.00;;;;;;;6.85;74.05;94031.75;5041478;28;20292;-68
2021/12/03 01:06:10;;;;;;;3.97;3.58;;;;;;;6.89;73.20;94015.63;5040168;28;20289;-68
2021/12/03 01:08:37;;;;;;;4.85;3.30;;;;;;;6.74;73.30;94002.63;5041130;28;20936;-69
2021/12/03 01:11:05;;;;;;;10.20;6.95;;;;;;;6.52;75.71;94003.44;5039899;28;20203;-67
2021/12/03 01:13:33;;;;;;;14.98;8.45;;;;;;;6.73;76.81;93987.53;5040273;28;20261;-67
2021/12/03 01:16:00;;;;;;;26.20;14.55;;;;;;;7.19;79.76;94004.34;5040676;28;20230;-67
2021/12/03 01:18:27;;;;;;;6.30;4.28;;;;;;;7.29;73.15;94009.91;5041190;28;20219;-67
2021/12/03 01:20:55;;;;;;;7.63;4.43;;;;;;;7.41;72.69;93997.63;5040038;28;20271;-66
2021/12/03 01:23:23;;;;;;;5.40;4.68;;;;;;;7.79;72.48;93990.25;5039304;28;20237;-67
2021/12/03 01:25:50;;;;;;;8.38;4.30;;;;;;;7.95;71.03;94001.38;5041895;28;20195;-65
2021/12/03 01:28:17;;;;;;;5.60;4.18;;;;;;;8.19;71.73;94013.03;5039390;28;20231;-67
2021/12/03 01:30:44;;;;;;;3.35;2.90;;;;;;;8.45;69.13;93993.44;5040570;28;20207;-67
2021/12/03 01:33:11;;;;;;;4.15;3.50;;;;;;;8.61;68.98;93991.91;5041403;28;20195;-67
2021/12/03 01:35:39;;;;;;;3.47;3.17;;;;;;;8.87;67.98;93970.53;5041247;28;20214;-66
2021/12/03 01:38:08;;;;;;;3.58;3.08;;;;;;;9.01;67.38;93992.69;5039502;28;20203;-66
2021/12/03 01:40:38;;;;;;;2.75;2.53;;;;;;;9.03;67.82;93996.00;5042371;28;20234;-65
2021/12/03 01:43:06;;;;;;;3.05;2.65;;;;;;;9.35;66.38;93986.94;5039364;28;20716;-67
2021/12/03 01:45:37;;;;;;;4.22;2.78;;;;;;;9.03;66.58;94011.19;5039966;28;20536;-66
2021/12/03 01:48:04;;;;;;;6.32;3.88;;;;;;;8.77;67.83;93987.81;5039646;28;20252;-66
2021/12/03 01:50:35;;;;;;;3.60;3.30;;;;;;;8.75;67.15;94007.34;5040823;28;20292;-67
2021/12/03 01:53:02;;;;;;;6.25;3.80;;;;;;;8.60;65.43;93997.88;5040519;28;20260;-67
2021/12/03 01:55:31;;;;;;;3.42;2.90;;;;;;;8.09;66.63;94013.50;5042190;28;20657;-68
2021/12/03 01:57:57;;;;;;;3.65;3.05;;;;;;;7.37;68.38;93988.53;5041035;28;20222;-68
2021/12/03 02:00:27;;;;;;;5.85;3.83;;;;;;;7.13;69.32;93975.13;5039762;28;20871;-68
2021/12/03 02:02:54;;;;;;;3.67;3.20;;;;;;;7.28;69.28;93978.75;5040616;28;20324;-68
2021/12/03 02:05:22;;;;;;;3.10;2.90;;;;;;;7.16;69.89;94002.78;5041253;28;20609;-68
2021/12/03 02:07:50;;;;;;;4.53;3.20;;;;;;;6.90;71.07;93999.59;5039673;28;20278;-67
2021/12/03 02:10:21;;;;;;;4.68;3.53;;;;;;;6.79;71.35;93967.94;5039003;28;20684;-69
2021/12/03 02:12:51;;;;;;;4.50;3.15;;;;;;;6.89;71.85;93991.19;5041442;28;20245;-68
2021/12/03 02:15:19;;;;;;;5.03;3.30;;;;;;;7.01;71.01;93987.38;5040483;28;20256;-68
2021/12/03 02:17:46;;;;;;;4.45;2.95;;;;;;;6.90;71.58;93997.06;5040015;28;20250;-68
2021/12/03 02:20:15;;;;;;;4.70;3.10;;;;;;;6.75;72.18;93963.88;5039420;28;20677;-68
2021/12/03 02:22:44;;;;;;;3.35;3.05;;;;;;;6.87;72.72;93960.09;5039592;28;20230;-68
2021/12/03 02:25:13;;;;;;;5.25;3.60;;;;;;;6.79;73.04;93957.03;5039590;28;20206;-68
2021/12/03 02:27:40;;;;;;;2.78;2.55;;;;;;;6.82;73.02;93969.56;5039245;28;20276;-67
2021/12/03 02:30:08;;;;;;;4.32;2.85;;;;;;;7.06;71.70;93980.44;5039643;28;20755;-67
2021/12/03 02:32:35;;;;;;;4.28;2.63;;;;;;;7.08;72.73;93979.50;5041303;28;20203;-67
2021/12/03 02:35:02;;;;;;;3.17;2.90;;;;;;;7.11;72.17;93968.47;5038798;28;20282;-66
2021/12/03 02:37:29;;;;;;;3.60;2.88;;;;;;;7.20;70.98;93984.97;5040299;28;21011;-67
2021/12/03 02:39:57;;;;;;;3.13;2.83;;;;;;;7.09;71.60;93950.03;5039658;28;20265;-68
2021/12/03 02:42:24;;;;;;;2.55;2.25;;;;;;;7.24;70.73;93948.59;5039633;28;20316;-67
2021/12/03 02:44:52;;;;;;;2.58;2.40;;;;;;;7.08;71.56;93984.56;5040747;28;21178;-68
2021/12/03 02:47:19;;;;;;;2.88;2.67;;;;;;;7.05;72.42;93976.28;5039861;28;20293;-67
2021/12/03 02:49:46;;;;;;;4.57;3.03;;;;;;;7.14;72.22;93968.38;5039168;28;20210;-68
2021/12/03 02:52:13;;;;;;;7.82;3.08;;;;;;;7.16;72.84;93971.66;5039968;28;20674;-68
2021/12/03 02:54:40;;;;;;;2.67;2.47;;;;;;;7.12;72.40;93954.97;5039060;28;20633;-68
2021/12/03 02:57:08;;;;;;;2.35;2.15;;;;;;;7.37;71.44;93970.00;5039706;28;20284;-70
2021/12/03 02:59:35;;;;;;;2.47;2.27;;;;;;;7.39;71.74;93964.03;5039051;28;20176;-68
2021/12/03 03:02:03;;;;;;;4.28;2.83;;;;;;;7.27;72.37;93969.53;5042061;28;20256;-68
2021/12/03 03:04:30;;;;;;;3.78;2.25;;;;;;;7.49;71.78;93974.56;5043513;28;20199;-68
2021/12/03 03:06:57;;;;;;;2.30;2.20;;;;;;;7.48;72.00;93966.16;5044483;28;20782;-67
2021/12/03 03:09:24;;;;;;;2.67;2.35;;;;;;;7.43;71.85;93975.63;5043038;28;20233;-67
2021/12/03 03:11:51;;;;;;;2.70;2.47;;;;;;;7.31;72.19;93981.16;5042963;28;20249;-67
2021/12/03 03:14:20;;;;;;;3.95;2.70;;;;;;;7.32;71.85;93977.75;5042946;28;20207;-68
2021/12/03 03:16:47;;;;;;;3.47;3.17;;;;;;;7.29;73.08;93972.00;5042744;28;20230;-68
2021/12/03 03:19:16;;;;;;;5.40;3.25;;;;;;;7.31;72.85;93981.16;5042434;28;20465;-67
2021/12/03 03:21:47;;;;;;;5.32;3.60;;;;;;;7.30;73.44;93959.31;5043427;28;20306;-67
2021/12/03 03:24:16;;;;;;;4.47;3.53;;;;;;;7.60;72.40;93961.53;5043472;28;20263;-68
2021/12/03 03:26:45;;;;;;;3.70;3.13;;;;;;;7.65;72.29;93959.66;5044308;28;20229;-69
2021/12/03 03:29:14;;;;;;;8.18;4.00;;;;;;;7.85;72.32;93978.19;5041588;28;20214;-68
2021/12/03 03:31:43;;;;;;;3.08;2.78;;;;;;;7.96;71.30;93982.78;5044062;28;20203;-68
2021/12/03 03:34:10;;;;;;;5.53;2.72;;;;;;;7.89;71.29;93983.94;5042044;28;20252;-68
2021/12/03 03:36:39;;;;;;;2.88;2.53;;;;;;;7.86;70.85;93976.47;5042800;28;20752;-68
2021/12/03 03:39:08;;;;;;;3.78;3.38;;;;;;;7.85;71.54;93972.31;5042123;28;20207;-68
2021/12/03 03:41:35;;;;;;;3.70;3.40;;;;;;;7.70;72.64;93988.06;5043284;28;20238;-68
2021/12/03 03:44:02;;;;;;;5.60;3.67;;;;;;;7.72;71.71;93986.31;5042878;28;20337;-69
2021/12/03 03:46:29;;;;;;;4.32;2.88;;;;;;;7.83;71.62;93961.44;5042110;28;20207;-68
2021/12/03 03:48:57;;;;;;;8.60;3.05;;;;;;;7.89;71.94;93967.94;5043403;28;20308;-69
2021/12/03 03:51:24;;;;;;;4.80;3.03;;;;;;;7.88;72.79;93994.94;5042599;28;20199;-68
2021/12/03 03:53:51;;;;;;;2.90;2.70;;;;;;;7.74;72.69;93974.44;5041475;28;20620;-68
2021/12/03 03:56:17;;;;;;;8.40;3.35;;;;;;;7.57;73.51;93986.91;5042755;28;20260;-68
2021/12/03 03:58:44;;;;;;;4.25;2.88;;;;;;;7.51;74.22;93971.09;5042465;28;20806;-69
2021/12/03 04:01:13;;;;;;;6.18;3.05;;;;;;;7.38;73.52;93987.66;5042216;28;20252;-68
2021/12/03 04:03:41;;;;;;;4.72;3.25;;;;;;;7.37;73.29;93991.06;5041737;28;20227;-68
2021/12/03 04:06:09;;;;;;;4.43;2.97;;;;;;;7.48;73.66;93999.03;5042322;28;20206;-68
2021/12/03 04:08:36;;;;;;;3.95;3.65;;;;;;;7.77;72.65;93999.59;5042617;28;20215;-68
2021/12/03 04:11:03;;;;;;;6.13;3.05;;;;;;;7.49;73.74;93984.69;5041638;28;20257;-67
2021/12/03 04:13:30;;;;;;;4.57;3.50;;;;;;;7.42;73.37;93973.97;5042807;28;20203;-67
2021/12/03 04:15:57;;;;;;;9.23;3.60;;;;;;;7.53;73.21;94006.44;5041787;28;20234;-68
2021/12/03 04:18:23;;;;;;;4.43;3.13;;;;;;;7.39;73.21;93994.34;5042195;28;20274;-68
2021/12/03 04:20:50;;;;;;;3.72;3.33;;;;;;;7.32;74.08;94000.50;5042309;28;20233;-67
2021/12/03 04:23:19;;;;;;;6.60;3.63;;;;;;;7.35;74.52;93987.75;5041979;28;20732;-67
2021/12/03 04:25:47;;;;;;;3.55;3.08;;;;;;;7.30;75.32;93994.69;5041569;28;20211;-67
2021/12/03 04:28:14;;;;;;;3.97;3.20;;;;;;;7.49;74.28;94000.69;5041983;28;20727;-67
2021/12/03 04:30:42;;;;;;;4.93;3.20;;;;;;;7.25;74.91;93981.41;5041797;28;20297;-66
2021/12/03 04:33:09;;;;;;;2.80;2.35;;;;;;;7.51;74.12;94005.69;5041159;28;20235;-68
2021/12/03 04:35:37;;;;;;;4.90;2.78;;;;;;;7.60;73.32;94001.97;5042669;28;20223;-68
2021/12/03 04:38:04;;;;;;;3.25;2.60;;;;;;;7.63;74.50;93996.81;5041986;28;20210;-67
2021/12/03 04:40:33;;;;;;;4.13;2.90;;;;;;;7.70;73.62;94003.25;5041589;28;20284;-68
2021/12/03 04:43:00;;;;;;;3.28;3.08;;;;;;;7.86;72.80;94009.38;5041943;28;20283;-68
2021/12/03 04:45:30;;;;;;;9.05;6.13;;;;;;;7.85;73.41;94026.25;5040629;28;20749;-67
2021/12/03 04:47:59;;;;;;;5.05;3.55;;;;;;;7.82;72.77;93997.72;5041692;28;20191;-67
2021/12/03 04:50:30;;;;;;;3.17;2.88;;;;;;;7.78;73.60;94003.78;5040302;28;20203;-66
2021/12/03 04:52:57;;;;;;;2.85;2.65;;;;;;;8.05;72.82;94002.66;5042684;28;20657;-67
2021/12/03 04:55:25;;;;;;;5.82;3.40;;;;;;;8.05;73.11;94022.91;5040562;28;20234;-69
2021/12/03 04:57:54;;;;;;;3.78;2.90;;;;;;;8.06;72.61;94024.56;5041525;28;20574;-67
2021/12/03 05:00:23;;;;;;;4.15;2.95;;;;;;;8.19;72.16;94028.22;5041204;28;20285;-68
2021/12/03 05:02:52;;;;;;;4.28;3.35;;;;;;;8.18;72.52;94031.63;5041848;28;20296;-68
2021/12/03 05:05:19;;;;;;;4.15;3.05;;;;;;;8.09;73.71;94016.84;5040429;28;20575;-67
2021/12/03 05:07:57;;;;;;;4.90;3.97;;;;;;;8.22;72.94;94031.50;5039992;28;20288;-67
2021/12/03 05:10:30;;;;;;;5.22;4.10;;;;;;;8.19;73.21;94038.34;5041828;28;20198;-68
2021/12/03 05:13:02;;;;;;;5.32;3.13;;;;;;;8.28;72.19;94032.09;5042786;28;20653;-67
2021/12/03 05:15:28;;;;;;;3.28;2.97;;;;;;;8.24;72.48;94010.31;5042242;28;20195;-67
2021/12/03 05:17:55;;;;;;;6.88;3.38;;;;;;;8.31;72.12;94031.97;5042068;28;20258;-67
2021/12/03 05:20:22;;;;;;;4.40;3.03;;;;;;;8.36;71.84;94024.22;5039476;28;20200;-67
2021/12/03 05:22:49;;;;;;;5.18;3.60;;;;;;;8.43;72.05;94035.72;5040276;28;20352;-68
2021/12/03 05:25:16;;;;;;;9.30;2.78;;;;;;;8.50;72.80;94019.41;5040181;28;20207;-69
2021/12/03 05:27:43;;;;;;;3.63;1.85;;;;;;;9.06;70.35;94027.09;5041506;28;20296;-67
2021/12/03 05:30:12;;;;;;;3.55;3.25;;;;;;;9.03;70.29;94028.94;5041431;28;20626;-67
2021/12/03 05:32:39;;;;;;;3.47;3.17;;;;;;;8.78;71.30;94029.19;5041191;28;20257;-67
2021/12/03 05:35:08;;;;;;;5.38;3.40;;;;;;;8.80;72.27;94033.28;5039829;28;20207;-67
2021/12/03 05:37:35;;;;;;;4.25;2.90;;;;;;;8.96;71.44;94043.56;5040781;28;20751;-66
2021/12/03 05:40:02;;;;;;;4.28;3.17;;;;;;;8.69;72.25;94052.34;5040801;28;20788;-68
2021/12/03 05:42:29;;;;;;;3.95;3.00;;;;;;;8.53;72.70;94062.31;5040047;28;20546;-68
2021/12/03 05:44:57;;;;;;;4.93;3.88;;;;;;;8.56;72.53;94069.78;5042316;28;20207;-69
2021/12/03 05:47:26;;;;;;;5.88;3.88;;;;;;;8.53;72.34;94063.13;5039417;28;20203;-68
2021/12/03 05:49:53;;;;;;;5.03;3.60;;;;;;;8.74;71.66;94065.66;5039574;28;20198;-67
2021/12/03 05:52:20;;;;;;;6.80;3.72;;;;;;;8.83;72.31;94080.47;5039898;28;20226;-67
2021/12/03 05:54:48;;;;;;;4.20;3.50;;;;;;;8.80;72.22;94078.88;5040254;28;21137;-67
2021/12/03 05:57:15;;;;;;;4.22;3.70;;;;;;;8.89;71.00;94075.16;5041030;28;20207;-67
2021/12/03 05:59:42;;;;;;;5.80;3.65;;;;;;;8.93;70.66;94053.00;5041256;28;20584;-68
2021/12/03 06:02:09;;;;;;;5.97;3.97;;;;;;;9.06;70.89;94066.81;5041165;28;20207;-68
2021/12/03 06:04:37;;;;;;;5.18;4.45;;;;;;;9.45;68.61;94065.03;5040564;28;20282;-69
2021/12/03 06:07:05;;;;;;;4.63;3.58;;;;;;;9.46;68.38;94035.44;5040338;28;20295;-68
2021/12/03 06:09:34;;;;;;;8.20;4.93;;;;;;;9.47;68.33;94058.19;5040687;28;20587;-69
2021/12/03 06:12:02;;;;;;;4.20;3.80;;;;;;;9.54;68.34;94069.72;5041131;28;20214;-67
2021/12/03 06:14:30;;;;;;;4.93;2.83;;;;;;;9.36;68.61;94055.31;5040692;28;20203;-66
2021/12/03 06:16:58;;;;;;;5.13;3.10;;;;;;;9.37;68.57;94072.19;5040826;28;20223;-68
2021/12/03 06:19:38;;;;;;;3.42;2.67;;;;;;;9.52;68.23;94061.34;5040539;28;20206;-70
2021/12/03 06:22:06;;;;;;;3.60;3.05;;;;;;;9.51;68.20;94059.69;5041500;28;20530;-71
2021/12/03 06:24:33;;;;;;;3.22;2.95;;;;;;;9.44;68.60;94081.16;5038504;28;20284;-68
2021/12/03 06:27:00;;;;;;;10.55;5.57;;;;;;;9.26;69.93;94079.44;5038241;28;20210;-69
2021/12/03 06:29:26;;;;;;;7.85;6.03;;;;;;;9.26;69.98;94071.00;5040186;28;20211;-68
2021/12/03 06:31:53;;;;;;;7.88;3.40;;;;;;;9.57;68.83;94081.44;5040256;28;20280;-68
2021/12/03 06:34:20;;;;;;;5.85;3.92;;;;;;;9.51;68.89;94064.75;5042021;28;20252;-68
2021/12/03 06:36:47;;;;;;;8.95;4.30;;;;;;;9.69;68.50;94075.78;5044251;28;20451;-69
2021/12/03 06:39:15;;;;;;;2.30;2.10;;;;;;;9.84;67.50;94086.97;5044513;28;20202;-69
2021/12/03 06:41:42;;;;;;;4.97;2.55;;;;;;;10.06;66.78;94087.59;5042646;28;20622;-68
2021/12/03 06:44:09;;;;;;;5.22;3.35;;;;;;;10.13;66.76;94071.19;5044870;28;20238;-71
2021/12/03 06:46:36;;;;;;;2.13;2.03;;;;;;;10.30;65.38;94116.13;5044317;28;20218;-69
2021/12/03 06:49:04;;;;;;;2.45;1.75;;;;;;;10.46;64.30;94095.88;5044604;28;20203;-68
2021/12/03 06:51:31;;;;;;;5.07;2.33;;;;;;;10.57;63.72;94094.47;5044409;28;20198;-68
2021/12/03 06:54:01;;;;;;;6.68;2.40;;;;;;;10.64;64.28;94102.59;5043582;28;20198;-68
2021/12/03 06:56:43;;;;;;;5.00;3.05;;;;;;;10.60;64.11;94102.84;5043304;28;20203;-68
2021/12/03 06:59:10;;;;;;;3.22;2.80;;;;;;;10.61;64.58;94095.16;5044762;28;20199;-68
2021/12/03 07:01:37;;;;;;;4.47;2.60;;;;;;;10.56;65.40;94097.09;5042507;28;20207;-68
2021/12/03 07:04:04;;;;;;;3.78;3.38;;;;;;;10.48;66.32;94105.06;5043432;28;20289;-68
2021/12/03 07:06:31;;;;;;;6.78;4.10;;;;;;;10.67;64.78;94120.22;5041910;28;20214;-69
2021/12/03 07:08:57;;;;;;;2.22;2.03;;;;;;;10.79;64.39;94112.03;5043278;28;20226;-69
2021/12/03 07:11:24;;;;;;;5.05;3.17;;;;;;;10.78;63.81;94107.84;5042768;28;20203;-68
2021/12/03 07:13:53;;;;;;;2.83;2.20;;;;;;;11.00;63.07;94106.75;5042706;28;20245;-68
2021/12/03 07:16:20;;;;;;;14.55;8.30;;;;;;;11.23;62.72;94101.31;5042811;28;20203;-67
2021/12/03 07:18:47;;;;;;;2.25;2.05;;;;;;;11.35;61.58;94107.53;5042094;28;21649;-68
2021/12/03 07:21:14;;;;;;;2.15;1.80;;;;;;;11.43;61.19;94108.75;5043820;28;20203;-68
2021/12/03 07:23:42;;;;;;;5.38;2.10;;;;;;;11.38;61.73;94108.19;5042074;28;20782;-68
2021/12/03 07:26:08;;;;;;;3.30;2.03;;;;;;;11.45;61.45;94103.56;5043772;28;20194;-70
2021/12/03 07:28:35;;;;;;;5.35;1.80;;;;;;;11.77;60.44;94107.00;5042455;28;20333;-68
2021/12/03 07:31:04;;;;;;;3.10;1.73;;;;;;;11.75;60.46;94101.16;5043302;28;20202;-68
2021/12/03 07:33:31;;;;;;;5.93;2.03;;;;;;;11.72;60.35;94103.84;5041788;28;20226;-67
2021/12/03 07:35:59;;;;;;;3.67;1.75;;;;;;;11.93;60.26;94097.63;5043943;28;20737;-66
2021/12/03 07:38:26;;;;;;;3.65;1.45;;;;;;;12.38;58.68;94085.81;5043292;28;20759;-68
2021/12/03 07:40:53;;;;;;;8.95;1.83;;;;;;;12.99;56.25;94087.44;5043498;28;20217;-67
2021/12/03 07:43:20;;;;;;;3.10;2.28;;;;;;;13.88;54.60;94099.88;5043641;28;20218;-68
2021/12/03 07:45:49;;;;;;;8.85;2.10;;;;;;;13.95;53.76;94095.22;5041117;28;20260;-68
2021/12/03 07:48:17;;;;;;;2.00;1.67;;;;;;;14.42;52.79;94094.00;5042742;28;20191;-69
2021/12/03 07:50:44;;;;;;;1.55;1.45;;;;;;;14.49;52.25;94105.50;5043457;28;20222;-73
2021/12/03 07:53:14;;;;;;;3.25;1.80;;;;;;;14.60;51.89;94092.81;5044140;28;20203;-68
2021/12/03 07:55:41;;;;;;;2.83;2.38;;;;;;;15.75;49.36;94096.25;5043180;28;20214;-68
2021/12/03 07:58:09;;;;;;;3.45;1.40;;;;;;;15.37;49.82;94078.34;5042258;28;20261;-68
2021/12/03 08:00:36;;;;;;;3.55;1.25;;;;;;;14.81;51.39;94111.91;5043064;28;20323;-69
2021/12/03 08:03:03;;;;;;;2.47;1.30;;;;;;;14.52;52.17;94107.84;5043663;28;20276;-70
2021/12/03 08:05:31;;;;;;;4.70;2.53;;;;;;;14.38;53.01;94113.78;5042672;28;20201;-68
2021/12/03 08:07:59;;;;;;;5.63;2.67;;;;;;;14.27;54.57;94124.72;5042332;28;20642;-68
2021/12/03 08:10:26;;;;;;;12.25;7.00;;;;;;;14.32;54.88;94118.50;5042363;28;20249;-68
2021/12/03 08:12:54;;;;;;;7.80;4.20;;;;;;;14.23;53.73;94125.00;5042631;28;20336;-69
2021/12/03 08:15:21;;;;;;;7.60;4.85;;;;;;;13.74;54.33;94128.00;5042146;28;20242;-70
2021/12/03 08:17:49;;;;;;;11.15;2.58;;;;;;;13.63;55.42;94131.22;5041352;28;20890;-68
2021/12/03 08:20:17;;;;;;;4.85;3.45;;;;;;;13.74;55.04;94133.13;5043890;28;20210;-70
2021/12/03 08:22:48;;;;;;;10.65;4.10;;;;;;;13.93;54.81;94137.91;5041622;28;20544;-69
2021/12/03 08:25:15;;;;;;;17.67;6.95;;;;;;;13.96;55.51;94123.22;5043666;28;20288;-69
2021/12/03 08:27:42;;;;;;;11.68;3.88;;;;;;;13.77;56.29;94127.84;5041473;28;20293;-70
2021/12/03 08:30:11;;;;;;;3.55;2.38;;;;;;;13.86;55.91;94139.19;5043433;28;20206;-69
2021/12/03 08:32:38;;;;;;;8.95;2.25;;;;;;;13.46;56.15;94131.41;5040731;28;20713;-68
2021/12/03 08:35:06;;;;;;;2.42;1.77;;;;;;;13.34;56.81;94131.31;5040762;28;20191;-69
2021/12/03 08:37:32;;;;;;;7.35;2.08;;;;;;;13.29;56.85;94134.13;5043077;28;20245;-69
2021/12/03 08:40:00;;;;;;;3.45;2.00;;;;;;;13.31;56.39;94123.84;5041145;28;20850;-70
2021/12/03 08:42:27;;;;;;;2.83;1.75;;;;;;;13.17;57.14;94122.91;5042390;28;20195;-67
2021/12/03 08:44:54;;;;;;;4.15;1.95;;;;;;;13.20;57.15;94132.13;5042911;28;20312;-67
2021/12/03 08:47:22;;;;;;;2.58;1.50;;;;;;;13.22;56.30;94136.22;5041485;28;20202;-67
2021/12/03 08:49:50;;;;;;;2.90;1.77;;;;;;;13.19;56.84;94127.91;5043191;28;20207;-68
2021/12/03 08:52:48;;;;;;;2.53;1.85;;;;;;;13.24;56.99;94136.13;5041486;28;20210;-69
2021/12/03 08:55:16;;;;;;;4.40;2.13;;;;;;;13.19;57.15;94125.38;5041997;28;20206;-68
2021/12/03 08:57:42;;;;;;;7.82;2.42;;;;;;;13.12;58.24;94124.88;5040703;28;20290;-69
2021/12/03 09:00:13;;;;;;;5.55;2.05;;;;;;;13.09;58.21;94137.81;5042185;28;20288;-68
2021/12/03 09:02:40;;;;;;;3.17;2.50;;;;;;;13.05;58.76;94133.00;5040788;28;20207;-69
2021/12/03 09:05:08;;;;;;;4.82;2.15;;;;;;;13.11;59.37;94138.56;5042033;28;20701;-68
2021/12/03 09:07:39;;;;;;;2.88;2.13;;;;;;;13.13;58.78;94146.09;5042140;28;20227;-69
2021/12/03 09:10:14;;;;;;;7.68;2.28;;;;;;;13.12;58.58;94154.66;5043041;28;20205;-72
2021/12/03 09:12:57;;;;;;;6.53;2.42;;;;;;;13.05;58.82;94163.59;5042347;28;20226;-69
2021/12/03 09:15:28;;;;;;;7.47;2.42;;;;;;;13.00;59.19;94147.72;5041668;28;20253;-67
2021/12/03 09:18:13;;;;;;;3.97;2.22;;;;;;;13.05;58.81;94150.84;5043083;28;20338;-68
2021/12/03 09:20:51;;;;;;;18.45;10.95;;;;;;;13.04;58.83;94156.84;5043069;28;20593;-68
2021/12/03 09:23:24;;;;;;;8.35;2.67;;;;;;;13.00;58.49;94140.06;5039797;28;20203;-67
2021/12/03 09:25:53;;;;;;;8.13;2.83;;;;;;;13.04;59.60;94141.53;5041059;28;20203;-70
2021/12/03 09:28:26;;;;;;;6.00;2.38;;;;;;;13.06;57.91;94132.06;5042328;28;20398;-69
2021/12/03 09:30:53;;;;;;;2.15;1.95;;;;;;;13.06;59.23;94137.19;5039425;28;20234;-70
2021/12/03 09:33:23;;;;;;;7.53;2.25;;;;;;;13.07;59.45;94126.06;5040609;28;20633;-69
2021/12/03 09:35:54;;;;;;;3.70;1.67;;;;;;;13.03;57.96;94130.53;5039847;28;20677;-68
2021/12/03 09:38:21;;;;;;;1.25;1.15;;;;;;;13.12;57.27;94132.53;5042102;28;20199;-69
2021/12/03 09:40:48;;;;;;;2.88;1.92;;;;;;;13.17;56.46;94135.66;5040110;28;20203;-69
2021/12/03 09:43:15;;;;;;;2.75;1.65;;;;;;;13.24;55.81;94138.69;5039439;28;20215;-69
2021/12/03 09:45:53;;;;;;;4.78;1.40;;;;;;;13.21;56.07;94134.56;5040762;28;20276;-68
2021/12/03 09:48:30;;;;;;;8.75;1.60;;;;;;;13.16;57.46;94145.94;5039612;28;20207;-70
2021/12/03 09:50:57;;;;;;;2.78;1.50;;;;;;;13.19;56.88;94123.63;5040669;28;20199;-68
2021/12/03 09:53:37;;;;;;;4.75;2.50;;;;;;;13.22;57.35;94130.28;5041003;28;20219;-70
2021/12/03 09:56:05;;;;;;;4.80;2.33;;;;;;;13.08;58.63;94143.84;5039602;28;20213;-68
2021/12/03 09:58:45;;;;;;;7.47;2.17;;;;;;;13.06;58.96;94143.09;5042363;28;20677;-69
2021/12/03 10:01:17;;;;;;;6.95;1.52;;;;;;;13.09;57.18;94127.63;5041889;28;20191;-68
2021/12/03 10:03:56;;;;;;;5.35;1.70;;;;;;;13.20;56.13;94120.19;5040719;28;20191;-69
2021/12/03 10:12:44;;;;;;;5.43;1.33;;;;;;;13.42;55.14;94112.06;5038747;28;20281;-68
2021/12/03 10:15:14;;;;;;;7.03;2.33;;;;;;;13.41;55.81;94120.63;5040074;28;20202;-69
2021/12/03 10:17:46;;;;;;;1.67;1.13;;;;;;;13.44;54.26;94119.63;5040920;28;20241;-68
2021/12/03 10:20:21;;;;;;;5.72;1.33;;;;;;;13.46;54.04;94128.84;5040967;28;20282;-67
2021/12/03 10:39:49;;;;;;;9.85;4.00;;;;;;;13.85;54.81;94114.59;5006874;28;20263;-68
2021/12/03 10:42:30;;;;;;;4.53;2.20;;;;;;;14.04;52.16;94097.22;5041480;28;20284;-68
2021/12/03 10:48:07;;;;;;;9.02;1.50;;;;;;;14.27;52.37;94100.91;5023652;28;20214;-68
2021/12/03 10:53:35;;;;;;;4.68;1.95;;;;;;;14.39;52.98;94114.63;5036157;28;20203;-70
2021/12/03 11:13:02;;;;;;;1.75;1.50;;;;;;;14.13;51.08;94117.06;5010250;28;20210;-70
2021/12/03 11:27:36;;;;;;;4.18;0.95;;;;;;;13.99;51.75;94124.78;5041959;28;20209;-69
2021/12/03 11:30:19;;;;;;;3.40;1.10;;;;;;;13.93;52.38;94103.00;5043994;28;20214;-69
2021/12/03 11:39:06;;;;;;;3.97;1.63;;;;;;;13.99;51.07;94106.09;5043279;28;20287;-70
2021/12/03 14:00:22;;;;;;;5.65;1.70;;;;;;;13.48;52.70;94116.81;5051246;28;20198;-69
2021/12/03 14:45:29;;;;;;;10.48;2.70;;;;;;;13.09;55.17;94129.34;5057476;28;20619;-69
2021/12/03 14:53:39;;;;;;;8.07;1.50;;;;;;;13.05;53.92;94148.28;5064694;28;20226;-67
2021/12/03 14:56:10;;;;;;;5.57;2.03;;;;;;;13.25;53.68;94135.22;5064931;27;20190;-71
2021/12/03 14:58:47;;;;;;;5.22;2.60;;;;;;;13.20;53.71;94132.94;5064865;27;20191;-70
2021/12/03 15:01:21;;;;;;;8.02;2.15;;;;;;;13.28;53.60;94140.16;5064772;28;20290;-69
2021/12/03 15:04:11;;;;;;;3.83;1.05;;;;;;;13.28;52.45;94148.63;5064553;28;20226;-72
2021/12/03 15:06:39;;;;;;;6.57;2.47;;;;;;;13.26;53.70;94165.75;5064419;28;20649;-68
2021/12/03 15:09:12;;;;;;;3.95;1.15;;;;;;;13.26;53.35;94136.88;5064344;28;20222;-71
2021/12/03 15:20:30;;;;;;;5.32;1.65;;;;;;;13.09;54.93;94159.97;5063902;28;20688;-69
2021/12/03 15:23:18;;;;;;;4.80;2.38;;;;;;;13.24;55.32;94169.31;5064434;27;20270;-71
2021/12/03 15:25:56;;;;;;;9.70;1.75;;;;;;;13.14;55.56;94174.06;5051049;27;20251;-70
2021/12/03 15:34:04;;;;;;;8.45;3.97;;;;;;;12.63;61.33;94197.41;5034556;27;20219;-69
2021/12/03 15:36:47;;;;;;;6.25;4.78;;;;;;;12.11;64.81;94197.69;5050536;28;20191;-68
2021/12/03 15:39:34;;;;;;;8.10;4.95;;;;;;;11.34;67.67;94212.69;5050304;28;20202;-69
2021/12/03 16:04:20;;;;;;;2.80;2.17;;;;;;;9.28;76.35;94244.97;4988604;28;20193;-70
2021/12/03 16:07:01;;;;;;;4.15;2.53;;;;;;;9.16;76.57;94246.28;5036546;28;20198;-69
2021/12/03 16:09:53;;;;;;;4.20;2.50;;;;;;;9.20;76.33;94247.81;5049655;28;20191;-70
2021/12/03 16:12:28;;;;;;;2.30;2.10;;;;;;;9.11;76.80;94248.22;5049832;28;20309;-71
2021/12/03 16:18:09;;;;;;;2.25;1.52;;;;;;;9.05;76.19;94247.63;5016905;27;20716;-71
2021/12/03 16:23:42;;;;;;;2.45;2.28;;;;;;;8.82;76.13;94251.91;5046128;27;20214;-71
2021/12/03 16:26:21;;;;;;;3.95;2.30;;;;;;;8.68;76.52;94254.16;5038459;27;20215;-71
2021/12/03 16:45:44;;;;;;;3.80;1.30;;;;;;;7.79;79.85;94281.91;5050432;27;20322;-69
2021/12/03 16:49:08;;;;;;;2.22;1.40;;;;;;;7.89;79.22;94274.84;5042273;27;20729;-67
2021/12/03 16:51:31;;;;;;;2.03;1.92;;;;;;;7.74;80.46;94288.00;5042929;27;20248;-68
2021/12/03 16:54:06;;;;;;;2.47;2.28;;;;;;;7.70;79.90;94302.47;5043705;27;20234;-67
2021/12/03 16:56:33;;;;;;;2.90;2.60;;;;;;;7.62;80.37;94288.44;5041243;27;20214;-72
2021/12/03 16:59:01;;;;;;;2.13;2.00;;;;;;;7.61;80.35;94286.81;5037772;27;20584;-70
2021/12/03 17:01:35;;;;;;;5.20;4.25;;;;;;;7.29;81.88;94301.34;5042643;27;20222;-69